sensor_id;sensor_type;location;lat;lon;timestamp;P1;durP1;ratioP1;P2;durP2;ratioP2
15385;SDS011;7791;47.246;9.648;2023-07-13T00:00:32;5.37;;;3.30;;
15385;SDS011;7791;47.246;9.648;2023-07-13T00:02:59;4.20;;;2.80;;
15385;SDS011;7791;47.246;9.648;2023-07-13T00:05:25;4.73;;;2.70;;
15385;SDS011;7791;47.246;9.648;2023-07-13T00:07:51;5.10;;;2.37;;
15385;SDS011;7791;47.246;9.648;2023-07-13T00:10:17;3.60;;;3.00;;
15385;SDS011;7791;47.246;9.648;2023-07-13T00:12:43;6.57;;;2.60;;
15385;SDS011;7791;47.246;9.648;2023-07-13T00:15:11;3.87;;;2.27;;
15385;SDS011;7791;47.246;9.648;2023-07-13T00:17:39;6.17;;;2.57;;
15385;SDS011;7791;47.246;9.648;2023-07-13T00:20:08;5.17;;;2.47;;
15385;SDS011;7791;47.246;9.648;2023-07-13T00:22:34;3.37;;;2.40;;
15385;SDS011;7791;47.246;9.648;2023-07-13T00:24:59;3.13;;;2.50;;
15385;SDS011;7791;47.246;9.648;2023-07-13T00:27:25;2.63;;;2.10;;
15385;SDS011;7791;47.246;9.648;2023-07-13T00:29:51;3.20;;;2.03;;
15385;SDS011;7791;47.246;9.648;2023-07-13T00:32:17;3.43;;;2.03;;
15385;SDS011;7791;47.246;9.648;2023-07-13T00:34:42;2.87;;;2.00;;
15385;SDS011;7791;47.246;9.648;2023-07-13T00:37:09;2.93;;;2.00;;
15385;SDS011;7791;47.246;9.648;2023-07-13T00:39:35;4.17;;;2.43;;
15385;SDS011;7791;47.246;9.648;2023-07-13T00:42:02;5.13;;;2.57;;
15385;SDS011;7791;47.246;9.648;2023-07-13T00:44:28;4.53;;;2.47;;
15385;SDS011;7791;47.246;9.648;2023-07-13T00:46:54;3.33;;;2.10;;
15385;SDS011;7791;47.246;9.648;2023-07-13T00:49:20;4.03;;;2.70;;
15385;SDS011;7791;47.246;9.648;2023-07-13T00:51:48;3.07;;;2.20;;
15385;SDS011;7791;47.246;9.648;2023-07-13T00:54:20;3.97;;;2.20;;
15385;SDS011;7791;47.246;9.648;2023-07-13T00:56:49;2.83;;;2.17;;
15385;SDS011;7791;47.246;9.648;2023-07-13T00:59:18;2.30;;;2.00;;
15385;SDS011;7791;47.246;9.648;2023-07-13T01:01:46;3.60;;;2.10;;
15385;SDS011;7791;47.246;9.648;2023-07-13T01:04:13;3.17;;;2.30;;
15385;SDS011;7791;47.246;9.648;2023-07-13T01:06:38;3.77;;;2.30;;
15385;SDS011;7791;47.246;9.648;2023-07-13T01:09:06;3.90;;;2.40;;
15385;SDS011;7791;47.246;9.648;2023-07-13T01:11:34;3.60;;;2.50;;
15385;SDS011;7791;47.246;9.648;2023-07-13T01:14:00;3.00;;;2.40;;
15385;SDS011;7791;47.246;9.648;2023-07-13T01:16:26;2.73;;;2.13;;
15385;SDS011;7791;47.246;9.648;2023-07-13T01:18:54;4.10;;;2.13;;
15385;SDS011;7791;47.246;9.648;2023-07-13T01:21:33;3.73;;;2.40;;
15385;SDS011;7791;47.246;9.648;2023-07-13T01:23:59;3.97;;;2.40;;
15385;SDS011;7791;47.246;9.648;2023-07-13T01:26:24;4.60;;;2.40;;
15385;SDS011;7791;47.246;9.648;2023-07-13T01:28:50;3.50;;;2.37;;
15385;SDS011;7791;47.246;9.648;2023-07-13T01:31:16;3.17;;;2.20;;
15385;SDS011;7791;47.246;9.648;2023-07-13T01:33:42;4.20;;;2.30;;
15385;SDS011;7791;47.246;9.648;2023-07-13T01:36:08;4.27;;;2.37;;
15385;SDS011;7791;47.246;9.648;2023-07-13T01:38:36;4.60;;;2.17;;
15385;SDS011;7791;47.246;9.648;2023-07-13T01:41:03;4.13;;;2.63;;
15385;SDS011;7791;47.246;9.648;2023-07-13T01:43:29;5.30;;;2.97;;
15385;SDS011;7791;47.246;9.648;2023-07-13T01:45:55;3.20;;;2.60;;
15385;SDS011;7791;47.246;9.648;2023-07-13T01:48:21;3.33;;;2.50;;
15385;SDS011;7791;47.246;9.648;2023-07-13T01:50:47;3.90;;;2.80;;
15385;SDS011;7791;47.246;9.648;2023-07-13T01:53:13;4.47;;;2.57;;
15385;SDS011;7791;47.246;9.648;2023-07-13T01:55:40;4.03;;;2.50;;
15385;SDS011;7791;47.246;9.648;2023-07-13T01:58:06;3.43;;;2.73;;
15385;SDS011;7791;47.246;9.648;2023-07-13T02:00:32;4.23;;;2.90;;
15385;SDS011;7791;47.246;9.648;2023-07-13T02:02:58;6.00;;;2.87;;
15385;SDS011;7791;47.246;9.648;2023-07-13T02:05:23;4.43;;;2.67;;
15385;SDS011;7791;47.246;9.648;2023-07-13T02:07:49;5.13;;;2.53;;
15385;SDS011;7791;47.246;9.648;2023-07-13T02:10:15;4.27;;;2.57;;
15385;SDS011;7791;47.246;9.648;2023-07-13T02:12:42;4.10;;;2.77;;
15385;SDS011;7791;47.246;9.648;2023-07-13T02:15:09;4.20;;;2.50;;
15385;SDS011;7791;47.246;9.648;2023-07-13T02:17:37;7.60;;;2.77;;
15385;SDS011;7791;47.246;9.648;2023-07-13T02:20:04;4.77;;;2.60;;
15385;SDS011;7791;47.246;9.648;2023-07-13T02:22:30;3.43;;;2.50;;
15385;SDS011;7791;47.246;9.648;2023-07-13T02:24:56;4.90;;;2.30;;
15385;SDS011;7791;47.246;9.648;2023-07-13T02:27:22;4.73;;;2.27;;
15385;SDS011;7791;47.246;9.648;2023-07-13T02:29:49;3.57;;;2.20;;
15385;SDS011;7791;47.246;9.648;2023-07-13T02:32:15;5.03;;;2.67;;
15385;SDS011;7791;47.246;9.648;2023-07-13T02:34:40;3.97;;;2.43;;
15385;SDS011;7791;47.246;9.648;2023-07-13T02:37:06;4.07;;;2.20;;
15385;SDS011;7791;47.246;9.648;2023-07-13T02:39:32;4.10;;;2.30;;
15385;SDS011;7791;47.246;9.648;2023-07-13T02:41:57;3.03;;;2.40;;
15385;SDS011;7791;47.246;9.648;2023-07-13T02:44:23;4.17;;;2.40;;
15385;SDS011;7791;47.246;9.648;2023-07-13T02:46:50;5.03;;;2.70;;
15385;SDS011;7791;47.246;9.648;2023-07-13T02:49:16;3.90;;;2.33;;
15385;SDS011;7791;47.246;9.648;2023-07-13T02:51:42;3.13;;;2.20;;
15385;SDS011;7791;47.246;9.648;2023-07-13T02:54:08;4.47;;;2.83;;
15385;SDS011;7791;47.246;9.648;2023-07-13T02:56:35;3.23;;;2.40;;
15385;SDS011;7791;47.246;9.648;2023-07-13T02:59:00;4.63;;;2.50;;
15385;SDS011;7791;47.246;9.648;2023-07-13T03:01:26;3.23;;;2.20;;
15385;SDS011;7791;47.246;9.648;2023-07-13T03:03:54;3.40;;;2.50;;
15385;SDS011;7791;47.246;9.648;2023-07-13T03:06:19;5.93;;;2.57;;
15385;SDS011;7791;47.246;9.648;2023-07-13T03:08:45;5.87;;;2.53;;
15385;SDS011;7791;47.246;9.648;2023-07-13T03:11:12;4.67;;;2.50;;
15385;SDS011;7791;47.246;9.648;2023-07-13T03:13:39;3.07;;;2.27;;
15385;SDS011;7791;47.246;9.648;2023-07-13T03:16:06;4.83;;;2.27;;
15385;SDS011;7791;47.246;9.648;2023-07-13T03:18:32;3.97;;;2.30;;
15385;SDS011;7791;47.246;9.648;2023-07-13T03:20:59;4.60;;;2.77;;
15385;SDS011;7791;47.246;9.648;2023-07-13T03:23:26;4.50;;;2.33;;
15385;SDS011;7791;47.246;9.648;2023-07-13T03:26:00;4.20;;;2.70;;
15385;SDS011;7791;47.246;9.648;2023-07-13T03:28:27;3.83;;;2.57;;
15385;SDS011;7791;47.246;9.648;2023-07-13T03:30:58;3.57;;;2.60;;
15385;SDS011;7791;47.246;9.648;2023-07-13T03:33:25;3.50;;;2.47;;
15385;SDS011;7791;47.246;9.648;2023-07-13T03:35:50;4.33;;;2.57;;
15385;SDS011;7791;47.246;9.648;2023-07-13T03:38:18;4.30;;;2.57;;
15385;SDS011;7791;47.246;9.648;2023-07-13T03:40:43;6.50;;;2.50;;
15385;SDS011;7791;47.246;9.648;2023-07-13T03:43:09;6.03;;;2.50;;
15385;SDS011;7791;47.246;9.648;2023-07-13T03:45:35;3.73;;;2.40;;
15385;SDS011;7791;47.246;9.648;2023-07-13T03:48:03;4.40;;;2.53;;
15385;SDS011;7791;47.246;9.648;2023-07-13T03:50:29;3.53;;;2.70;;
15385;SDS011;7791;47.246;9.648;2023-07-13T03:52:55;4.47;;;3.07;;
15385;SDS011;7791;47.246;9.648;2023-07-13T03:55:23;5.67;;;2.80;;
15385;SDS011;7791;47.246;9.648;2023-07-13T03:57:58;3.83;;;2.37;;
15385;SDS011;7791;47.246;9.648;2023-07-13T04:00:26;4.93;;;2.63;;
15385;SDS011;7791;47.246;9.648;2023-07-13T04:02:52;4.70;;;3.10;;
15385;SDS011;7791;47.246;9.648;2023-07-13T04:05:17;4.17;;;2.13;;
15385;SDS011;7791;47.246;9.648;2023-07-13T04:07:43;4.63;;;2.60;;
15385;SDS011;7791;47.246;9.648;2023-07-13T04:10:09;5.07;;;2.83;;
15385;SDS011;7791;47.246;9.648;2023-07-13T04:12:36;5.53;;;3.00;;
15385;SDS011;7791;47.246;9.648;2023-07-13T04:15:02;4.13;;;2.63;;
15385;SDS011;7791;47.246;9.648;2023-07-13T04:17:28;4.07;;;2.87;;
15385;SDS011;7791;47.246;9.648;2023-07-13T04:19:53;5.13;;;2.87;;
15385;SDS011;7791;47.246;9.648;2023-07-13T04:22:19;2.83;;;2.07;;
15385;SDS011;7791;47.246;9.648;2023-07-13T04:24:45;5.23;;;2.97;;
15385;SDS011;7791;47.246;9.648;2023-07-13T04:27:10;4.13;;;2.53;;
15385;SDS011;7791;47.246;9.648;2023-07-13T04:29:38;5.47;;;2.73;;
15385;SDS011;7791;47.246;9.648;2023-07-13T04:32:04;4.97;;;2.50;;
15385;SDS011;7791;47.246;9.648;2023-07-13T04:34:30;4.33;;;2.23;;
15385;SDS011;7791;47.246;9.648;2023-07-13T04:36:56;4.17;;;2.47;;
15385;SDS011;7791;47.246;9.648;2023-07-13T04:39:21;4.20;;;2.37;;
15385;SDS011;7791;47.246;9.648;2023-07-13T04:41:47;5.73;;;3.10;;
15385;SDS011;7791;47.246;9.648;2023-07-13T04:44:13;5.20;;;2.60;;
15385;SDS011;7791;47.246;9.648;2023-07-13T04:46:40;2.90;;;2.27;;
15385;SDS011;7791;47.246;9.648;2023-07-13T04:49:07;4.53;;;2.53;;
15385;SDS011;7791;47.246;9.648;2023-07-13T04:51:33;3.43;;;2.60;;
15385;SDS011;7791;47.246;9.648;2023-07-13T04:53:58;3.80;;;2.83;;
15385;SDS011;7791;47.246;9.648;2023-07-13T04:56:24;4.60;;;3.10;;
15385;SDS011;7791;47.246;9.648;2023-07-13T04:58:50;5.47;;;3.10;;
15385;SDS011;7791;47.246;9.648;2023-07-13T05:01:15;4.20;;;2.30;;
15385;SDS011;7791;47.246;9.648;2023-07-13T05:03:43;4.13;;;2.57;;
15385;SDS011;7791;47.246;9.648;2023-07-13T05:06:09;3.67;;;2.40;;
15385;SDS011;7791;47.246;9.648;2023-07-13T05:08:34;5.23;;;2.87;;
15385;SDS011;7791;47.246;9.648;2023-07-13T05:11:00;4.27;;;3.80;;
15385;SDS011;7791;47.246;9.648;2023-07-13T05:13:27;5.47;;;4.33;;
15385;SDS011;7791;47.246;9.648;2023-07-13T05:15:56;5.10;;;4.07;;
15385;SDS011;7791;47.246;9.648;2023-07-13T05:18:23;4.47;;;3.47;;
15385;SDS011;7791;47.246;9.648;2023-07-13T05:20:56;4.60;;;3.43;;
15385;SDS011;7791;47.246;9.648;2023-07-13T05:23:23;4.50;;;3.13;;
15385;SDS011;7791;47.246;9.648;2023-07-13T05:25:48;4.87;;;2.87;;
15385;SDS011;7791;47.246;9.648;2023-07-13T05:28:14;4.93;;;2.60;;
15385;SDS011;7791;47.246;9.648;2023-07-13T05:30:40;4.00;;;2.80;;
15385;SDS011;7791;47.246;9.648;2023-07-13T05:33:10;4.23;;;2.73;;
15385;SDS011;7791;47.246;9.648;2023-07-13T05:35:36;3.90;;;2.80;;
15385;SDS011;7791;47.246;9.648;2023-07-13T05:38:03;3.00;;;2.50;;
15385;SDS011;7791;47.246;9.648;2023-07-13T05:40:29;4.83;;;2.60;;
15385;SDS011;7791;47.246;9.648;2023-07-13T05:42:54;3.63;;;2.83;;
15385;SDS011;7791;47.246;9.648;2023-07-13T05:45:20;3.40;;;2.40;;
15385;SDS011;7791;47.246;9.648;2023-07-13T05:47:46;3.03;;;2.17;;
15385;SDS011;7791;47.246;9.648;2023-07-13T05:50:12;6.17;;;2.50;;
15385;SDS011;7791;47.246;9.648;2023-07-13T05:52:37;3.10;;;2.23;;
15385;SDS011;7791;47.246;9.648;2023-07-13T05:55:05;2.40;;;1.97;;
15385;SDS011;7791;47.246;9.648;2023-07-13T05:57:31;2.60;;;2.20;;
15385;SDS011;7791;47.246;9.648;2023-07-13T05:59:56;2.20;;;2.00;;
15385;SDS011;7791;47.246;9.648;2023-07-13T06:02:22;5.60;;;1.90;;
15385;SDS011;7791;47.246;9.648;2023-07-13T06:04:48;2.50;;;2.07;;
15385;SDS011;7791;47.246;9.648;2023-07-13T06:07:14;2.80;;;2.23;;
15385;SDS011;7791;47.246;9.648;2023-07-13T06:09:39;4.20;;;2.00;;
15385;SDS011;7791;47.246;9.648;2023-07-13T06:12:07;2.57;;;2.20;;
15385;SDS011;7791;47.246;9.648;2023-07-13T06:14:33;3.77;;;2.30;;
15385;SDS011;7791;47.246;9.648;2023-07-13T06:16:59;5.90;;;2.63;;
15385;SDS011;7791;47.246;9.648;2023-07-13T06:19:25;2.70;;;1.90;;
15385;SDS011;7791;47.246;9.648;2023-07-13T06:21:50;3.87;;;2.00;;
15385;SDS011;7791;47.246;9.648;2023-07-13T06:24:16;3.73;;;1.90;;
15385;SDS011;7791;47.246;9.648;2023-07-13T06:26:42;2.33;;;2.10;;
15385;SDS011;7791;47.246;9.648;2023-07-13T06:29:09;3.60;;;2.27;;
15385;SDS011;7791;47.246;9.648;2023-07-13T06:31:34;4.03;;;2.63;;
15385;SDS011;7791;47.246;9.648;2023-07-13T06:34:00;4.53;;;2.30;;
15385;SDS011;7791;47.246;9.648;2023-07-13T06:36:26;4.07;;;2.37;;
15385;SDS011;7791;47.246;9.648;2023-07-13T06:38:51;3.90;;;2.90;;
15385;SDS011;7791;47.246;9.648;2023-07-13T06:41:17;4.60;;;2.33;;
15385;SDS011;7791;47.246;9.648;2023-07-13T06:43:43;3.23;;;2.43;;
15385;SDS011;7791;47.246;9.648;2023-07-13T06:46:10;3.77;;;2.90;;
15385;SDS011;7791;47.246;9.648;2023-07-13T06:48:36;3.80;;;2.60;;
15385;SDS011;7791;47.246;9.648;2023-07-13T06:51:01;3.70;;;2.33;;
15385;SDS011;7791;47.246;9.648;2023-07-13T06:53:27;5.63;;;2.83;;
15385;SDS011;7791;47.246;9.648;2023-07-13T06:55:53;4.30;;;2.67;;
15385;SDS011;7791;47.246;9.648;2023-07-13T06:58:19;6.13;;;2.70;;
15385;SDS011;7791;47.246;9.648;2023-07-13T07:00:45;4.87;;;2.90;;
15385;SDS011;7791;47.246;9.648;2023-07-13T07:03:12;4.80;;;3.13;;
15385;SDS011;7791;47.246;9.648;2023-07-13T07:05:38;3.90;;;3.00;;
15385;SDS011;7791;47.246;9.648;2023-07-13T07:08:04;4.30;;;2.90;;
15385;SDS011;7791;47.246;9.648;2023-07-13T07:10:30;5.53;;;2.70;;
15385;SDS011;7791;47.246;9.648;2023-07-13T07:12:56;6.73;;;3.33;;
15385;SDS011;7791;47.246;9.648;2023-07-13T07:15:21;6.17;;;3.33;;
15385;SDS011;7791;47.246;9.648;2023-07-13T07:17:47;5.27;;;3.20;;
15385;SDS011;7791;47.246;9.648;2023-07-13T07:20:14;5.43;;;2.83;;
15385;SDS011;7791;47.246;9.648;2023-07-13T07:22:40;4.77;;;2.80;;
15385;SDS011;7791;47.246;9.648;2023-07-13T07:25:06;4.47;;;2.80;;
15385;SDS011;7791;47.246;9.648;2023-07-13T07:27:32;4.00;;;2.40;;
15385;SDS011;7791;47.246;9.648;2023-07-13T07:29:58;4.73;;;2.60;;
15385;SDS011;7791;47.246;9.648;2023-07-13T07:32:24;6.87;;;3.23;;
15385;SDS011;7791;47.246;9.648;2023-07-13T07:34:50;5.20;;;2.80;;
15385;SDS011;7791;47.246;9.648;2023-07-13T07:37:17;3.70;;;2.80;;
15385;SDS011;7791;47.246;9.648;2023-07-13T07:39:43;5.10;;;2.97;;
15385;SDS011;7791;47.246;9.648;2023-07-13T07:42:08;6.03;;;3.13;;
15385;SDS011;7791;47.246;9.648;2023-07-13T07:44:34;4.93;;;3.40;;
15385;SDS011;7791;47.246;9.648;2023-07-13T07:47:00;4.73;;;3.03;;
15385;SDS011;7791;47.246;9.648;2023-07-13T07:49:26;4.50;;;3.17;;
15385;SDS011;7791;47.246;9.648;2023-07-13T07:51:52;4.20;;;3.13;;
15385;SDS011;7791;47.246;9.648;2023-07-13T07:54:21;3.73;;;3.10;;
15385;SDS011;7791;47.246;9.648;2023-07-13T07:56:46;5.83;;;3.10;;
15385;SDS011;7791;47.246;9.648;2023-07-13T07:59:12;4.20;;;2.80;;
15385;SDS011;7791;47.246;9.648;2023-07-13T08:01:38;5.13;;;2.57;;
15385;SDS011;7791;47.246;9.648;2023-07-13T08:04:03;4.73;;;2.90;;
15385;SDS011;7791;47.246;9.648;2023-07-13T08:06:31;5.83;;;3.40;;
15385;SDS011;7791;47.246;9.648;2023-07-13T08:08:57;4.33;;;2.60;;
15385;SDS011;7791;47.246;9.648;2023-07-13T08:11:24;4.47;;;2.80;;
15385;SDS011;7791;47.246;9.648;2023-07-13T08:13:50;5.00;;;2.70;;
15385;SDS011;7791;47.246;9.648;2023-07-13T08:16:17;5.70;;;2.87;;
15385;SDS011;7791;47.246;9.648;2023-07-13T08:18:43;5.47;;;2.70;;
15385;SDS011;7791;47.246;9.648;2023-07-13T08:21:08;3.87;;;2.60;;
15385;SDS011;7791;47.246;9.648;2023-07-13T08:23:34;3.37;;;2.57;;
15385;SDS011;7791;47.246;9.648;2023-07-13T08:26:02;4.90;;;2.27;;
15385;SDS011;7791;47.246;9.648;2023-07-13T08:28:30;4.35;;;2.50;;
15385;SDS011;7791;47.246;9.648;2023-07-13T08:30:59;2.45;;;1.80;;
15385;SDS011;7791;47.246;9.648;2023-07-13T08:33:26;4.93;;;2.10;;
15385;SDS011;7791;47.246;9.648;2023-07-13T08:35:51;2.20;;;1.83;;
15385;SDS011;7791;47.246;9.648;2023-07-13T08:38:18;2.38;;;1.73;;
15385;SDS011;7791;47.246;9.648;2023-07-13T08:40:45;23.02;;;4.18;;
15385;SDS011;7791;47.246;9.648;2023-07-13T08:43:16;4.43;;;2.28;;
15385;SDS011;7791;47.246;9.648;2023-07-13T08:45:49;2.60;;;1.70;;
15385;SDS011;7791;47.246;9.648;2023-07-13T08:48:20;3.78;;;1.80;;
15385;SDS011;7791;47.246;9.648;2023-07-13T08:50:51;3.35;;;1.75;;
15385;SDS011;7791;47.246;9.648;2023-07-13T08:53:20;2.55;;;1.77;;
15385;SDS011;7791;47.246;9.648;2023-07-13T08:55:48;2.67;;;1.83;;
15385;SDS011;7791;47.246;9.648;2023-07-13T08:58:21;2.08;;;1.55;;
15385;SDS011;7791;47.246;9.648;2023-07-13T09:01:02;1.90;;;1.67;;
15385;SDS011;7791;47.246;9.648;2023-07-13T09:03:36;2.90;;;1.90;;
15385;SDS011;7791;47.246;9.648;2023-07-13T09:06:07;6.07;;;1.75;;
15385;SDS011;7791;47.246;9.648;2023-07-13T09:08:43;2.78;;;1.70;;
15385;SDS011;7791;47.246;9.648;2023-07-13T09:11:20;2.85;;;1.48;;
15385;SDS011;7791;47.246;9.648;2023-07-13T09:13:58;4.20;;;2.10;;
15385;SDS011;7791;47.246;9.648;2023-07-13T09:16:31;4.20;;;2.28;;
15385;SDS011;7791;47.246;9.648;2023-07-13T09:18:59;3.22;;;2.13;;
15385;SDS011;7791;47.246;9.648;2023-07-13T09:21:30;2.85;;;2.03;;
15385;SDS011;7791;47.246;9.648;2023-07-13T09:23:59;4.05;;;2.15;;
15385;SDS011;7791;47.246;9.648;2023-07-13T09:26:40;4.63;;;2.20;;
15385;SDS011;7791;47.246;9.648;2023-07-13T09:29:11;4.28;;;2.20;;
15385;SDS011;7791;47.246;9.648;2023-07-13T09:31:43;3.45;;;2.35;;
15385;SDS011;7791;47.246;9.648;2023-07-13T09:34:14;3.20;;;2.17;;
15385;SDS011;7791;47.246;9.648;2023-07-13T09:36:40;3.97;;;2.53;;
15385;SDS011;7791;47.246;9.648;2023-07-13T09:39:09;3.22;;;2.35;;
15385;SDS011;7791;47.246;9.648;2023-07-13T09:41:41;3.05;;;2.20;;
15385;SDS011;7791;47.246;9.648;2023-07-13T09:44:15;4.88;;;2.17;;
15385;SDS011;7791;47.246;9.648;2023-07-13T09:46:45;3.75;;;2.55;;
15385;SDS011;7791;47.246;9.648;2023-07-13T09:49:12;2.42;;;2.08;;
15385;SDS011;7791;47.246;9.648;2023-07-13T09:51:38;4.03;;;2.80;;
15385;SDS011;7791;47.246;9.648;2023-07-13T09:54:05;3.70;;;2.20;;
15385;SDS011;7791;47.246;9.648;2023-07-13T09:56:30;4.53;;;2.05;;
15385;SDS011;7791;47.246;9.648;2023-07-13T09:58:57;3.53;;;2.45;;
15385;SDS011;7791;47.246;9.648;2023-07-13T10:01:33;3.13;;;2.25;;
15385;SDS011;7791;47.246;9.648;2023-07-13T10:04:01;3.13;;;2.10;;
15385;SDS011;7791;47.246;9.648;2023-07-13T10:06:35;3.03;;;2.10;;
15385;SDS011;7791;47.246;9.648;2023-07-13T10:09:01;2.53;;;2.08;;
15385;SDS011;7791;47.246;9.648;2023-07-13T10:11:28;2.17;;;1.85;;
15385;SDS011;7791;47.246;9.648;2023-07-13T10:13:55;2.53;;;1.83;;
15385;SDS011;7791;47.246;9.648;2023-07-13T10:16:22;2.10;;;1.88;;
15385;SDS011;7791;47.246;9.648;2023-07-13T10:18:49;4.20;;;2.00;;
15385;SDS011;7791;47.246;9.648;2023-07-13T10:21:27;1.77;;;1.40;;
15385;SDS011;7791;47.246;9.648;2023-07-13T10:23:57;2.67;;;1.85;;
15385;SDS011;7791;47.246;9.648;2023-07-13T10:26:29;3.50;;;2.10;;
15385;SDS011;7791;47.246;9.648;2023-07-13T10:28:59;2.20;;;1.85;;
15385;SDS011;7791;47.246;9.648;2023-07-13T10:31:29;2.65;;;1.98;;
15385;SDS011;7791;47.246;9.648;2023-07-13T10:33:56;5.50;;;2.28;;
15385;SDS011;7791;47.246;9.648;2023-07-13T10:36:31;2.97;;;2.08;;
15385;SDS011;7791;47.246;9.648;2023-07-13T10:39:04;3.58;;;1.98;;
15385;SDS011;7791;47.246;9.648;2023-07-13T10:41:31;6.03;;;2.28;;
15385;SDS011;7791;47.246;9.648;2023-07-13T10:43:59;3.95;;;2.20;;
15385;SDS011;7791;47.246;9.648;2023-07-13T10:46:27;3.28;;;2.10;;
15385;SDS011;7791;47.246;9.648;2023-07-13T10:48:54;4.00;;;2.10;;
15385;SDS011;7791;47.246;9.648;2023-07-13T10:51:23;3.22;;;2.17;;
15385;SDS011;7791;47.246;9.648;2023-07-13T10:56:40;2.65;;;2.03;;
15385;SDS011;7791;47.246;9.648;2023-07-13T10:59:09;6.45;;;2.22;;
15385;SDS011;7791;47.246;9.648;2023-07-13T11:01:41;5.63;;;2.78;;
15385;SDS011;7791;47.246;9.648;2023-07-13T11:04:15;3.05;;;2.42;;
15385;SDS011;7791;47.246;9.648;2023-07-13T11:06:41;3.95;;;2.67;;
15385;SDS011;7791;47.246;9.648;2023-07-13T11:09:19;3.78;;;2.75;;
15385;SDS011;7791;47.246;9.648;2023-07-13T11:11:56;6.00;;;3.13;;
15385;SDS011;7791;47.246;9.648;2023-07-13T11:14:26;5.22;;;2.88;;
15385;SDS011;7791;47.246;9.648;2023-07-13T11:16:54;5.22;;;2.58;;
15385;SDS011;7791;47.246;9.648;2023-07-13T11:19:39;5.00;;;2.97;;
15385;SDS011;7791;47.246;9.648;2023-07-13T11:22:12;3.03;;;2.17;;
15385;SDS011;7791;47.246;9.648;2023-07-13T11:24:52;2.90;;;2.30;;
15385;SDS011;7791;47.246;9.648;2023-07-13T11:27:25;3.53;;;2.42;;
15385;SDS011;7791;47.246;9.648;2023-07-13T11:32:50;5.13;;;2.53;;
15385;SDS011;7791;47.246;9.648;2023-07-13T11:35:26;4.63;;;2.67;;
15385;SDS011;7791;47.246;9.648;2023-07-13T11:37:53;4.57;;;2.40;;
15385;SDS011;7791;47.246;9.648;2023-07-13T11:40:21;3.55;;;2.65;;
15385;SDS011;7791;47.246;9.648;2023-07-13T11:42:50;3.67;;;2.58;;
15385;SDS011;7791;47.246;9.648;2023-07-13T11:45:19;2.97;;;2.55;;
15385;SDS011;7791;47.246;9.648;2023-07-13T11:47:47;3.83;;;2.55;;
15385;SDS011;7791;47.246;9.648;2023-07-13T11:50:18;3.65;;;2.40;;
15385;SDS011;7791;47.246;9.648;2023-07-13T11:52:44;5.35;;;2.17;;
15385;SDS011;7791;47.246;9.648;2023-07-13T11:55:13;3.83;;;2.03;;
15385;SDS011;7791;47.246;9.648;2023-07-13T11:57:43;3.72;;;2.10;;
15385;SDS011;7791;47.246;9.648;2023-07-13T12:00:15;3.95;;;2.42;;
15385;SDS011;7791;47.246;9.648;2023-07-13T12:02:44;3.75;;;2.33;;
15385;SDS011;7791;47.246;9.648;2023-07-13T12:05:14;3.25;;;2.00;;
15385;SDS011;7791;47.246;9.648;2023-07-13T12:07:41;4.00;;;2.08;;
15385;SDS011;7791;47.246;9.648;2023-07-13T12:10:13;3.47;;;2.25;;
15385;SDS011;7791;47.246;9.648;2023-07-13T12:12:47;3.88;;;2.20;;
15385;SDS011;7791;47.246;9.648;2023-07-13T12:15:13;2.83;;;2.10;;
15385;SDS011;7791;47.246;9.648;2023-07-13T12:17:39;3.08;;;1.95;;
15385;SDS011;7791;47.246;9.648;2023-07-13T12:20:13;2.90;;;1.80;;
15385;SDS011;7791;47.246;9.648;2023-07-13T12:22:45;2.67;;;2.00;;
15385;SDS011;7791;47.246;9.648;2023-07-13T12:25:11;3.15;;;1.88;;
15385;SDS011;7791;47.246;9.648;2023-07-13T12:27:37;3.28;;;1.77;;
15385;SDS011;7791;47.246;9.648;2023-07-13T12:30:15;3.38;;;1.70;;
15385;SDS011;7791;47.246;9.648;2023-07-13T12:32:55;2.83;;;1.60;;
15385;SDS011;7791;47.246;9.648;2023-07-13T12:35:23;2.50;;;1.60;;
15385;SDS011;7791;47.246;9.648;2023-07-13T12:37:50;1.50;;;1.30;;
15385;SDS011;7791;47.246;9.648;2023-07-13T12:40:17;3.75;;;1.90;;
15385;SDS011;7791;47.246;9.648;2023-07-13T12:42:45;3.70;;;1.45;;
15385;SDS011;7791;47.246;9.648;2023-07-13T12:45:16;2.33;;;1.60;;
15385;SDS011;7791;47.246;9.648;2023-07-13T12:47:44;2.08;;;1.48;;
15385;SDS011;7791;47.246;9.648;2023-07-13T12:50:15;1.77;;;1.52;;
15385;SDS011;7791;47.246;9.648;2023-07-13T12:53:20;2.85;;;1.60;;
15385;SDS011;7791;47.246;9.648;2023-07-13T12:55:48;1.77;;;1.33;;
15385;SDS011;7791;47.246;9.648;2023-07-13T12:58:17;3.08;;;1.55;;
15385;SDS011;7791;47.246;9.648;2023-07-13T13:00:53;2.88;;;1.30;;
15385;SDS011;7791;47.246;9.648;2023-07-13T13:03:22;2.90;;;1.70;;
15385;SDS011;7791;47.246;9.648;2023-07-13T13:05:56;2.10;;;1.75;;
15385;SDS011;7791;47.246;9.648;2023-07-13T13:08:23;2.60;;;1.70;;
15385;SDS011;7791;47.246;9.648;2023-07-13T13:10:48;3.75;;;2.25;;
15385;SDS011;7791;47.246;9.648;2023-07-13T13:13:14;3.35;;;2.17;;
15385;SDS011;7791;47.246;9.648;2023-07-13T13:15:40;4.65;;;2.10;;
15385;SDS011;7791;47.246;9.648;2023-07-13T13:18:10;2.78;;;1.88;;
15385;SDS011;7791;47.246;9.648;2023-07-13T13:20:41;3.00;;;2.08;;
15385;SDS011;7791;47.246;9.648;2023-07-13T13:23:07;2.40;;;1.80;;
15385;SDS011;7791;47.246;9.648;2023-07-13T13:25:36;2.75;;;2.13;;
15385;SDS011;7791;47.246;9.648;2023-07-13T13:28:01;2.83;;;2.05;;
15385;SDS011;7791;47.246;9.648;2023-07-13T13:30:27;2.30;;;1.83;;
15385;SDS011;7791;47.246;9.648;2023-07-13T13:32:53;1.90;;;1.70;;
15385;SDS011;7791;47.246;9.648;2023-07-13T13:35:20;4.80;;;2.08;;
15385;SDS011;7791;47.246;9.648;2023-07-13T13:37:46;2.13;;;1.60;;
15385;SDS011;7791;47.246;9.648;2023-07-13T13:40:16;1.90;;;1.40;;
15385;SDS011;7791;47.246;9.648;2023-07-13T13:42:43;4.82;;;1.85;;
15385;SDS011;7791;47.246;9.648;2023-07-13T13:45:09;2.08;;;1.48;;
15385;SDS011;7791;47.246;9.648;2023-07-13T13:47:36;2.50;;;1.40;;
15385;SDS011;7791;47.246;9.648;2023-07-13T13:50:01;2.17;;;1.40;;
15385;SDS011;7791;47.246;9.648;2023-07-13T13:52:37;2.60;;;1.23;;
15385;SDS011;7791;47.246;9.648;2023-07-13T13:55:04;3.10;;;1.50;;
15385;SDS011;7791;47.246;9.648;2023-07-13T13:57:36;1.98;;;1.30;;
15385;SDS011;7791;47.246;9.648;2023-07-13T14:00:02;1.30;;;1.20;;
15385;SDS011;7791;47.246;9.648;2023-07-13T14:02:28;3.03;;;1.20;;
15385;SDS011;7791;47.246;9.648;2023-07-13T14:04:56;1.77;;;1.23;;
15385;SDS011;7791;47.246;9.648;2023-07-13T14:07:24;1.50;;;1.30;;
15385;SDS011;7791;47.246;9.648;2023-07-13T14:09:51;2.38;;;1.20;;
15385;SDS011;7791;47.246;9.648;2023-07-13T14:12:17;2.47;;;1.45;;
15385;SDS011;7791;47.246;9.648;2023-07-13T14:14:43;1.63;;;1.30;;
15385;SDS011;7791;47.246;9.648;2023-07-13T14:17:13;1.60;;;1.25;;
15385;SDS011;7791;47.246;9.648;2023-07-13T14:19:45;1.80;;;1.30;;
15385;SDS011;7791;47.246;9.648;2023-07-13T14:22:10;2.58;;;1.50;;
15385;SDS011;7791;47.246;9.648;2023-07-13T14:24:36;1.52;;;1.20;;
15385;SDS011;7791;47.246;9.648;2023-07-13T14:27:03;3.35;;;1.67;;
15385;SDS011;7791;47.246;9.648;2023-07-13T14:29:29;2.20;;;1.50;;
15385;SDS011;7791;47.246;9.648;2023-07-13T14:31:55;2.60;;;1.55;;
15385;SDS011;7791;47.246;9.648;2023-07-13T14:34:21;2.65;;;1.70;;
15385;SDS011;7791;47.246;9.648;2023-07-13T14:36:47;2.42;;;1.88;;
15385;SDS011;7791;47.246;9.648;2023-07-13T14:39:15;3.42;;;1.73;;
15385;SDS011;7791;47.246;9.648;2023-07-13T14:41:41;1.98;;;1.58;;
15385;SDS011;7791;47.246;9.648;2023-07-13T14:44:12;2.97;;;2.00;;
15385;SDS011;7791;47.246;9.648;2023-07-13T14:46:39;3.92;;;2.08;;
15385;SDS011;7791;47.246;9.648;2023-07-13T14:49:05;2.72;;;2.00;;
15385;SDS011;7791;47.246;9.648;2023-07-13T14:51:36;3.38;;;2.30;;
15385;SDS011;7791;47.246;9.648;2023-07-13T14:54:03;3.40;;;2.60;;
15385;SDS011;7791;47.246;9.648;2023-07-13T14:56:30;3.33;;;2.45;;
15385;SDS011;7791;47.246;9.648;2023-07-13T14:58:56;3.25;;;2.25;;
15385;SDS011;7791;47.246;9.648;2023-07-13T15:01:24;3.58;;;2.13;;
15385;SDS011;7791;47.246;9.648;2023-07-13T15:03:51;3.60;;;2.28;;
15385;SDS011;7791;47.246;9.648;2023-07-13T15:06:17;2.30;;;1.80;;
15385;SDS011;7791;47.246;9.648;2023-07-13T15:08:43;3.10;;;1.80;;